Terminal Aerodrome Forecast
Issued by NWS Raleigh/Durham, NC

Home | Current Version | Previous Version | Text Only | Print | Product List | Glossary On
Versions: 1 2 3 4 5 6 7 8 9 10 11 12 13 14 15 16 17 18 19 20 21 22 23 24 25 26 27 28 29 30 31 32 33 34 35 36 37 38 39 40 41 42 43 44 45
000
FTUS42 KRAH 072342
TAFFAY
TAF
KFAY 072342Z 0800/0824 01003KT P6SM SKC
     FM080600 VRB03KT P6SM OVC025 PROB30 0811/0816 4SM -RA BKN010
      OVC020
     FM081800 32011G17KT P6SM SCT040 BKN150=

USA.gov is the U.S. government's official web portal to all federal, state and local government web resources and services.